Time;durP1;ratioP1;P1;durP2;ratioP2;P2;SDS_P1;SDS_P2;PMS_P1;PMS_P2;Temp;Humidity;BMP_temperature;BMP_pressure;BME280_temperature;BME280_humidity;BME280_pressure;Samples;Min_cycle;Max_cycle;Signal;HPM_P1;HPM_P2
2023/06/12 00:01:13;;;;;;;11.25;10.45;;;23.80;45.40;;;;;;5032980;28;20262;-87
2023/06/12 00:03:40;;;;;;;10.77;10.07;;;23.60;45.90;;;;;;5032165;28;20215;-86
2023/06/12 00:06:09;;;;;;;10.85;10.15;;;23.60;45.10;;;;;;5033302;28;20231;-86
2023/06/12 00:08:36;;;;;;;10.65;9.95;;;23.50;45.70;;;;;;5022688;28;20194;-87
2023/06/12 00:11:09;;;;;;;10.20;9.50;;;23.60;46.30;;;;;;5014444;28;20197;-87
2023/06/12 00:13:41;;;;;;;11.27;10.57;;;23.60;46.00;;;;;;5014739;28;20169;-88
2023/06/12 00:16:07;;;;;;;10.75;9.90;;;23.50;46.30;;;;;;5014567;28;20177;-88
2023/06/12 00:18:33;;;;;;;11.18;10.45;;;23.40;46.40;;;;;;5013822;28;20646;-88
2023/06/12 00:20:59;;;;;;;11.32;10.63;;;23.20;47.20;;;;;;5027474;28;20673;-88
2023/06/12 00:23:25;;;;;;;10.15;9.50;;;23.20;46.70;;;;;;5031358;28;20220;-87
2023/06/12 00:25:50;;;;;;;10.38;9.77;;;23.10;48.00;;;;;;5030860;28;20188;-87
2023/06/12 00:28:16;;;;;;;11.00;10.05;;;23.10;48.10;;;;;;5030918;28;20209;-87
2023/06/12 00:30:42;;;;;;;10.45;9.65;;;23.10;48.10;;;;;;5031167;28;20200;-86
2023/06/12 00:33:07;;;;;;;11.15;10.38;;;22.90;48.00;;;;;;5030066;28;20302;-86
2023/06/12 00:35:33;;;;;;;10.90;10.07;;;22.80;48.40;;;;;;5030116;28;20181;-87
2023/06/12 00:37:59;;;;;;;10.52;9.82;;;22.80;48.10;;;;;;5034180;28;20649;-87
2023/06/12 00:40:25;;;;;;;10.88;10.18;;;22.80;48.00;;;;;;5035625;28;20822;-87
2023/06/12 00:42:51;;;;;;;11.00;10.23;;;22.90;47.90;;;;;;5035167;28;20236;-88
2023/06/12 00:45:19;;;;;;;10.40;9.57;;;23.00;48.20;;;;;;5036670;28;20192;-87
2023/06/12 00:47:53;;;;;;;10.05;9.32;;;22.80;49.10;;;;;;5036531;28;20223;-87
2023/06/12 00:50:20;;;;;;;9.68;9.07;;;22.50;49.40;;;;;;5036942;28;20207;-87
2023/06/12 00:52:48;;;;;;;10.18;9.48;;;22.40;49.40;;;;;;5035590;28;20288;-89
2023/06/12 00:55:15;;;;;;;10.50;9.80;;;22.40;49.60;;;;;;5035201;28;20192;-87
2023/06/12 00:57:44;;;;;;;9.90;9.30;;;22.20;50.50;;;;;;5036574;28;20211;-88
2023/06/12 01:00:12;;;;;;;9.85;9.02;;;22.30;50.80;;;;;;5037126;28;20184;-88
2023/06/12 01:02:44;;;;;;;10.82;9.95;;;22.30;50.40;;;;;;5036389;28;20201;-87
2023/06/12 01:05:13;;;;;;;10.48;9.80;;;22.40;49.60;;;;;;5036667;28;20215;-87
2023/06/12 01:07:47;;;;;;;10.45;9.65;;;22.50;50.10;;;;;;5037477;28;20241;-86
2023/06/12 01:10:36;;;;;;;10.30;9.60;;;22.40;50.00;;;;;;5036471;28;20268;-86
2023/06/12 01:13:03;;;;;;;10.05;9.45;;;22.40;50.20;;;;;;5045189;28;20189;-88
2023/06/12 01:15:29;;;;;;;10.95;10.15;;;22.40;49.50;;;;;;5035679;28;20271;-88
2023/06/12 01:17:58;;;;;;;11.18;10.48;;;22.30;48.20;;;;;;5036689;28;20263;-89
2023/06/12 01:20:24;;;;;;;10.23;9.48;;;22.20;48.00;;;;;;5033356;28;20173;-86
2023/06/12 01:23:05;;;;;;;10.07;9.45;;;22.00;48.60;;;;;;5031287;28;20246;-86
2023/06/12 01:26:08;;;;;;;10.48;9.88;;;21.90;48.40;;;;;;5033817;28;20203;-88
2023/06/12 01:29:19;;;;;;;10.77;10.07;;;21.80;47.80;;;;;;5032944;28;20700;-88
2023/06/12 01:32:07;;;;;;;9.70;9.10;;;21.60;48.60;;;;;;5014263;28;20200;-87
2023/06/12 01:35:01;;;;;;;9.70;9.10;;;21.30;50.00;;;;;;5026452;28;20184;-86
2023/06/12 01:37:43;;;;;;;10.60;9.90;;;21.20;50.50;;;;;;5035384;28;20179;-87
2023/06/12 01:40:11;;;;;;;10.00;9.20;;;21.10;51.20;;;;;;5049061;28;20560;-87
2023/06/12 01:42:37;;;;;;;10.15;9.45;;;20.90;51.30;;;;;;5042433;28;20260;-87
2023/06/12 01:45:03;;;;;;;10.43;9.52;;;20.80;52.60;;;;;;5040896;28;20662;-87
2023/06/12 01:47:28;;;;;;;9.88;9.27;;;20.80;52.90;;;;;;5036510;28;20175;-88
2023/06/12 01:49:54;;;;;;;10.40;9.48;;;20.80;53.80;;;;;;5035202;28;20301;-87
2023/06/12 01:52:20;;;;;;;9.80;9.20;;;20.70;54.00;;;;;;5036290;28;20217;-87
2023/06/12 01:54:48;;;;;;;9.77;9.07;;;20.60;54.30;;;;;;5035624;28;20212;-87
2023/06/12 01:57:21;;;;;;;9.60;8.90;;;20.50;54.80;;;;;;5034730;28;20235;-86
2023/06/12 01:59:51;;;;;;;9.52;8.82;;;20.40;55.30;;;;;;5035433;28;20173;-87
2023/06/12 02:02:17;;;;;;;9.52;8.93;;;20.50;54.00;;;;;;5034800;28;20200;-87
2023/06/12 02:04:43;;;;;;;10.10;9.48;;;20.40;53.60;;;;;;5034327;28;20606;-88
2023/06/12 02:07:09;;;;;;;10.40;9.60;;;20.30;52.70;;;;;;5033628;28;20545;-87
2023/06/12 02:09:35;;;;;;;9.75;9.05;;;20.10;52.80;;;;;;5037029;28;20258;-88
2023/06/12 02:12:01;;;;;;;9.20;8.60;;;20.20;53.00;;;;;;5035119;28;20296;-87
2023/06/12 02:14:27;;;;;;;9.63;8.93;;;20.20;52.80;;;;;;5033480;28;20216;-87
2023/06/12 02:16:53;;;;;;;9.30;8.70;;;20.30;52.10;;;;;;5032490;28;20315;-87
2023/06/12 02:19:25;;;;;;;9.23;8.52;;;20.30;52.00;;;;;;5031555;28;20196;-86
2023/06/12 02:21:55;;;;;;;9.25;8.45;;;20.40;52.20;;;;;;5032059;28;20220;-88
2023/06/12 02:24:27;;;;;;;9.23;8.52;;;20.40;52.40;;;;;;5031745;28;20197;-88
2023/06/12 02:26:52;;;;;;;9.48;8.88;;;20.40;53.30;;;;;;5032160;28;20543;-86
2023/06/12 02:29:19;;;;;;;9.00;8.40;;;20.20;53.60;;;;;;5031945;28;20201;-87
2023/06/12 02:31:44;;;;;;;9.25;8.65;;;20.00;55.10;;;;;;5032714;28;20281;-87
2023/06/12 02:34:10;;;;;;;9.65;8.98;;;19.80;54.20;;;;;;5032189;28;20212;-86
2023/06/12 02:36:42;;;;;;;9.07;8.45;;;19.70;53.80;;;;;;5032206;28;20541;-88
2023/06/12 02:39:12;;;;;;;9.25;8.65;;;19.70;54.10;;;;;;5032076;28;20191;-88
2023/06/12 02:41:42;;;;;;;9.13;8.52;;;19.70;54.00;;;;;;5031806;28;20213;-86
2023/06/12 02:44:07;;;;;;;9.05;8.30;;;19.70;53.40;;;;;;5033961;28;20993;-87
2023/06/12 02:46:37;;;;;;;9.50;8.70;;;19.70;53.70;;;;;;5033996;28;20173;-86
2023/06/12 02:49:02;;;;;;;9.02;8.43;;;19.80;53.40;;;;;;5034188;28;20232;-87
2023/06/12 02:51:28;;;;;;;9.95;9.15;;;19.80;54.00;;;;;;5034426;28;20196;-86
2023/06/12 02:53:53;;;;;;;8.65;8.15;;;19.90;53.70;;;;;;5034352;28;20183;-87
2023/06/12 02:56:19;;;;;;;8.90;8.30;;;19.80;53.90;;;;;;5034834;28;20203;-87
2023/06/12 02:58:46;;;;;;;9.38;8.77;;;19.70;54.40;;;;;;5034501;28;20204;-85
2023/06/12 03:01:12;;;;;;;9.07;8.38;;;19.60;55.00;;;;;;5034099;28;20205;-85
2023/06/12 03:03:39;;;;;;;9.93;9.18;;;19.80;55.10;;;;;;5035460;28;20215;-86
2023/06/12 03:06:05;;;;;;;9.15;8.55;;;19.70;54.30;;;;;;5035420;28;20577;-86
2023/06/12 03:08:31;;;;;;;9.52;8.82;;;19.80;54.40;;;;;;5033864;28;20197;-86
2023/06/12 03:10:57;;;;;;;9.43;8.63;;;19.70;54.30;;;;;;5033198;28;20189;-87
2023/06/12 03:13:23;;;;;;;9.35;8.65;;;19.60;54.70;;;;;;5031352;28;20177;-86
2023/06/12 03:15:49;;;;;;;9.55;8.95;;;19.70;54.60;;;;;;5031716;28;20240;-86
2023/06/12 03:18:15;;;;;;;10.00;9.25;;;19.90;54.50;;;;;;5033275;28;20212;-86
2023/06/12 03:20:40;;;;;;;9.10;8.40;;;20.00;54.00;;;;;;5031670;28;20185;-87
2023/06/12 03:23:06;;;;;;;9.20;8.45;;;20.00;53.60;;;;;;5031724;28;20887;-87
2023/06/12 03:25:35;;;;;;;9.93;9.18;;;20.10;53.90;;;;;;5030323;28;20207;-87
2023/06/12 03:28:01;;;;;;;10.23;9.23;;;20.10;54.10;;;;;;5030154;28;20208;-87
2023/06/12 03:30:26;;;;;;;10.30;9.43;;;20.20;54.00;;;;;;5031068;28;20200;-86
2023/06/12 03:32:56;;;;;;;9.50;8.80;;;20.30;53.60;;;;;;5030906;28;20193;-85
2023/06/12 03:35:23;;;;;;;9.77;9.07;;;20.40;54.10;;;;;;5031380;28;20179;-87
2023/06/12 03:37:49;;;;;;;10.63;9.73;;;20.40;53.30;;;;;;5029281;28;20169;-87
2023/06/12 03:40:15;;;;;;;9.65;9.00;;;20.30;53.10;;;;;;5032049;28;20246;-87
2023/06/12 03:42:40;;;;;;;9.98;9.35;;;20.40;53.80;;;;;;5034156;28;20693;-85
2023/06/12 03:45:07;;;;;;;9.75;9.05;;;20.30;53.80;;;;;;5035073;28;20175;-85
2023/06/12 03:47:32;;;;;;;10.60;9.80;;;20.20;53.80;;;;;;5034702;28;20190;-87
2023/06/12 03:49:58;;;;;;;10.80;9.45;;;20.30;53.90;;;;;;5033465;28;20211;-87
2023/06/12 03:52:24;;;;;;;9.90;9.20;;;20.20;54.00;;;;;;5032748;28;20233;-87
2023/06/12 03:54:50;;;;;;;10.27;9.55;;;20.30;54.00;;;;;;5031612;28;20189;-88
2023/06/12 03:57:20;;;;;;;10.35;9.57;;;20.20;54.20;;;;;;5049491;28;20259;-89
2023/06/12 03:59:46;;;;;;;10.18;9.43;;;20.00;54.60;;;;;;5034135;28;20192;-85
2023/06/12 04:02:12;;;;;;;9.95;9.15;;;20.10;54.80;;;;;;5032490;28;20224;-88
2023/06/12 04:04:39;;;;;;;9.38;8.68;;;20.10;54.60;;;;;;5033240;28;20185;-88
2023/06/12 04:07:06;;;;;;;9.45;8.75;;;20.10;54.90;;;;;;5031894;28;20238;-88
2023/06/12 04:09:32;;;;;;;10.20;9.25;;;20.00;54.60;;;;;;5029514;28;20204;-88
2023/06/12 04:11:57;;;;;;;10.23;9.38;;;20.00;54.80;;;;;;5034292;28;20197;-88
2023/06/12 04:14:23;;;;;;;10.05;9.35;;;20.00;55.00;;;;;;5033810;28;20181;-89
2023/06/12 04:16:50;;;;;;;10.48;9.68;;;19.90;55.10;;;;;;5034808;28;20177;-88
2023/06/12 04:19:17;;;;;;;9.68;8.98;;;19.90;55.00;;;;;;5036876;28;20272;-87
2023/06/12 04:21:43;;;;;;;9.93;9.23;;;19.90;55.40;;;;;;5036421;28;20196;-88
2023/06/12 04:24:15;;;;;;;9.40;8.70;;;19.80;55.80;;;;;;5033767;28;20181;-88
2023/06/12 04:26:43;;;;;;;9.60;8.80;;;19.80;56.10;;;;;;5035058;28;20684;-88
2023/06/12 04:29:09;;;;;;;9.00;8.40;;;19.80;56.20;;;;;;5034779;28;20189;-89
2023/06/12 04:31:36;;;;;;;9.63;8.98;;;19.90;56.00;;;;;;5034847;28;20193;-88
2023/06/12 04:34:02;;;;;;;9.90;9.20;;;19.90;55.50;;;;;;5035299;28;20254;-88
2023/06/12 04:36:28;;;;;;;9.85;9.15;;;19.90;55.70;;;;;;5034249;28;20583;-86
2023/06/12 04:38:53;;;;;;;10.05;9.32;;;19.90;55.90;;;;;;5016418;28;20268;-87
2023/06/12 04:41:27;;;;;;;9.82;9.13;;;19.70;56.00;;;;;;5026198;28;20216;-87
2023/06/12 04:43:58;;;;;;;9.95;9.25;;;19.80;56.00;;;;;;5035896;28;20173;-87
2023/06/12 04:46:25;;;;;;;9.27;8.57;;;19.70;56.10;;;;;;5036906;28;20238;-87
2023/06/12 04:48:51;;;;;;;9.60;8.90;;;19.80;55.80;;;;;;5035402;28;20205;-86
2023/06/12 04:51:17;;;;;;;10.40;9.40;;;19.90;55.80;;;;;;5041696;28;20193;-85
2023/06/12 04:53:47;;;;;;;10.05;9.02;;;20.00;55.30;;;;;;5044614;28;20192;-86
2023/06/12 04:56:20;;;;;;;9.52;8.73;;;20.10;55.30;;;;;;5035918;28;20177;-87
2023/06/12 04:58:46;;;;;;;9.60;8.70;;;20.10;55.60;;;;;;5036077;28;20187;-86
2023/06/12 05:01:14;;;;;;;10.23;9.40;;;20.20;55.40;;;;;;5035192;28;20201;-84
2023/06/12 05:03:43;;;;;;;10.15;9.35;;;20.30;55.00;;;;;;5034951;28;20185;-86
2023/06/12 05:06:09;;;;;;;9.98;9.27;;;20.30;55.20;;;;;;5035276;28;20235;-86
2023/06/12 05:08:36;;;;;;;9.60;8.63;;;20.30;55.30;;;;;;5023813;28;20202;-88
2023/06/12 05:11:03;;;;;;;9.35;8.65;;;20.30;55.80;;;;;;5014682;28;20228;-86
2023/06/12 05:13:29;;;;;;;9.90;9.20;;;20.30;56.00;;;;;;5015035;28;20178;-88
2023/06/12 05:15:54;;;;;;;9.98;9.27;;;20.30;55.90;;;;;;5013735;28;20276;-88
2023/06/12 05:18:20;;;;;;;9.90;9.10;;;20.30;55.70;;;;;;5030608;28;21008;-89
2023/06/12 05:20:46;;;;;;;9.95;8.98;;;20.30;55.80;;;;;;5032182;28;20192;-87
2023/06/12 05:23:11;;;;;;;9.75;8.77;;;20.40;55.00;;;;;;5035075;28;20711;-85
2023/06/12 05:25:37;;;;;;;9.13;8.43;;;20.40;55.20;;;;;;5036795;28;20244;-84
2023/06/12 05:28:03;;;;;;;9.55;8.68;;;20.40;54.90;;;;;;5036984;28;20204;-82
2023/06/12 05:30:29;;;;;;;9.10;8.50;;;20.40;55.00;;;;;;5039543;28;20189;-84
2023/06/12 05:32:55;;;;;;;8.68;8.00;;;20.40;54.80;;;;;;5038260;28;20852;-84
2023/06/12 05:35:21;;;;;;;9.05;8.35;;;20.40;54.70;;;;;;5039642;28;20240;-85
2023/06/12 05:37:46;;;;;;;9.15;8.50;;;20.30;54.90;;;;;;5039050;28;20170;-85
2023/06/12 05:40:13;;;;;;;9.32;8.63;;;20.40;54.50;;;;;;5039060;28;20848;-85
2023/06/12 05:42:39;;;;;;;9.75;8.95;;;20.50;54.60;;;;;;5037728;28;20201;-85
2023/06/12 05:45:05;;;;;;;11.88;9.32;;;20.60;54.40;;;;;;5040307;28;20312;-84
2023/06/12 05:47:33;;;;;;;9.43;8.52;;;20.70;54.30;;;;;;5038470;28;20693;-83
2023/06/12 05:49:59;;;;;;;9.73;8.70;;;20.80;54.00;;;;;;5038391;28;20209;-82
2023/06/12 05:52:25;;;;;;;9.60;8.90;;;20.80;54.00;;;;;;5037887;28;20224;-84
2023/06/12 05:54:51;;;;;;;9.35;8.57;;;20.90;54.00;;;;;;5037977;28;20180;-84
2023/06/12 05:57:17;;;;;;;11.18;9.52;;;20.90;54.20;;;;;;5038340;28;20182;-84
2023/06/12 05:59:47;;;;;;;9.93;9.13;;;21.10;54.30;;;;;;5038736;28;20182;-84
2023/06/12 06:02:14;;;;;;;9.80;8.98;;;21.10;54.10;;;;;;5036865;28;20217;-85
2023/06/12 06:04:40;;;;;;;9.43;8.70;;;21.00;53.90;;;;;;5034318;28;20174;-83
2023/06/12 06:07:07;;;;;;;10.30;9.13;;;21.10;54.60;;;;;;5035002;28;20652;-83
2023/06/12 06:09:34;;;;;;;9.07;8.38;;;21.10;54.20;;;;;;5016801;28;20195;-83
2023/06/12 06:11:59;;;;;;;9.10;8.45;;;21.20;54.00;;;;;;5017668;28;20250;-84
2023/06/12 06:14:25;;;;;;;9.90;9.10;;;21.20;53.80;;;;;;5016636;28;20175;-84
2023/06/12 06:16:51;;;;;;;9.98;9.07;;;21.30;53.40;;;;;;5019527;28;20183;-85
2023/06/12 06:19:16;;;;;;;10.05;9.05;;;21.40;53.20;;;;;;5033890;28;20192;-84
2023/06/12 06:21:42;;;;;;;8.80;8.30;;;21.60;52.50;;;;;;5031812;28;20215;-86
2023/06/12 06:24:08;;;;;;;10.95;9.10;;;21.70;52.40;;;;;;5034010;28;20191;-84
2023/06/12 06:26:33;;;;;;;9.77;9.07;;;21.80;53.10;;;;;;5033877;28;20187;-83
2023/06/12 06:28:59;;;;;;;9.88;9.07;;;21.70;52.40;;;;;;5033483;28;20207;-85
2023/06/12 06:31:27;;;;;;;9.57;8.85;;;21.70;52.60;;;;;;5034316;28;20212;-88
2023/06/12 06:33:54;;;;;;;9.45;8.63;;;21.80;53.00;;;;;;5034213;28;20187;-88
2023/06/12 06:36:20;;;;;;;9.48;8.80;;;21.80;53.10;;;;;;5033970;28;20188;-90
2023/06/12 06:38:47;;;;;;;10.10;9.20;;;21.90;52.30;;;;;;5034261;28;20727;-88
2023/06/12 06:41:13;;;;;;;9.18;8.57;;;22.10;50.90;;;;;;5037017;28;20222;-88
2023/06/12 06:43:45;;;;;;;9.50;8.80;;;22.20;50.40;;;;;;5052945;28;20189;-88
2023/06/12 06:46:11;;;;;;;10.00;9.30;;;22.30;49.90;;;;;;5043524;28;20258;-88
2023/06/12 06:48:39;;;;;;;10.05;9.35;;;22.50;50.50;;;;;;5035444;28;20204;-89
2023/06/12 06:51:24;;;;;;;11.27;9.27;;;22.60;50.90;;;;;;5033769;28;20197;-88
2023/06/12 06:53:51;;;;;;;10.57;9.60;;;22.80;50.20;;;;;;5050272;28;20229;-88
2023/06/12 06:56:19;;;;;;;10.52;9.82;;;22.90;49.30;;;;;;5036574;28;20195;-89
2023/06/12 06:58:45;;;;;;;10.15;9.48;;;23.00;48.50;;;;;;5033612;28;20177;-89
2023/06/12 07:01:12;;;;;;;10.10;9.40;;;23.10;48.00;;;;;;5030698;28;20284;-90
2023/06/12 07:03:37;;;;;;;9.68;8.98;;;23.10;48.10;;;;;;5030574;28;20232;-88
2023/06/12 07:06:04;;;;;;;10.43;9.68;;;23.10;48.00;;;;;;5033251;28;20177;-89
2023/06/12 07:08:29;;;;;;;10.43;9.68;;;23.30;47.80;;;;;;5022224;28;20599;-88
2023/06/12 07:10:55;;;;;;;10.73;9.77;;;23.30;47.70;;;;;;5011872;28;20193;-88
2023/06/12 07:13:22;;;;;;;10.50;9.68;;;23.50;46.50;;;;;;5011212;28;20202;-88
2023/06/12 07:15:48;;;;;;;10.15;9.45;;;23.60;46.80;;;;;;5025549;28;20188;-90
2023/06/12 07:18:13;;;;;;;10.43;9.77;;;23.60;46.40;;;;;;5032588;28;20195;-87
2023/06/12 07:20:40;;;;;;;10.60;9.73;;;23.60;46.60;;;;;;5031208;28;20188;-88
2023/06/12 07:23:06;;;;;;;10.07;9.43;;;23.70;46.20;;;;;;5032444;28;20185;-88
2023/06/12 07:25:32;;;;;;;12.13;10.75;;;23.70;46.30;;;;;;5031726;28;20188;-88
2023/06/12 07:27:58;;;;;;;11.18;10.20;;;23.70;46.10;;;;;;5033556;28;20189;-89
2023/06/12 07:30:23;;;;;;;10.50;9.60;;;23.90;46.00;;;;;;5035133;28;20200;-87
2023/06/12 07:32:49;;;;;;;11.20;10.40;;;24.10;45.70;;;;;;5034492;28;20197;-88
2023/06/12 07:35:15;;;;;;;10.85;10.05;;;24.20;44.80;;;;;;5035083;28;20185;-88
2023/06/12 07:37:42;;;;;;;11.52;10.60;;;24.30;44.90;;;;;;5034557;28;20256;-86
2023/06/12 07:40:09;;;;;;;10.57;9.80;;;24.30;44.80;;;;;;5034380;28;20252;-87
2023/06/12 07:42:35;;;;;;;11.32;10.52;;;24.40;44.80;;;;;;5035833;28;20283;-87
2023/06/12 07:45:01;;;;;;;10.38;9.77;;;24.60;44.00;;;;;;5038018;28;20197;-89
2023/06/12 07:47:27;;;;;;;10.75;9.85;;;24.60;44.10;;;;;;5040468;28;20184;-88
2023/06/12 07:49:53;;;;;;;11.20;10.25;;;24.60;44.50;;;;;;5039778;28;20212;-90
2023/06/12 07:52:20;;;;;;;11.35;10.70;;;24.70;44.00;;;;;;5038858;28;20200;-88
2023/06/12 07:54:47;;;;;;;10.65;9.95;;;24.90;42.90;;;;;;5036841;28;20172;-89
2023/06/12 07:57:13;;;;;;;11.45;10.65;;;25.10;42.40;;;;;;5037204;28;20497;-88
2023/06/12 07:59:40;;;;;;;13.50;12.45;;;25.30;41.70;;;;;;5046987;28;20181;-87
2023/06/12 08:02:06;;;;;;;13.80;13.00;;;25.30;41.30;;;;;;5054729;28;20228;-88
2023/06/12 08:04:33;;;;;;;13.82;12.93;;;25.30;40.60;;;;;;5035705;28;20185;-87
2023/06/12 08:07:00;;;;;;;13.55;12.65;;;25.40;40.20;;;;;;5035208;28;20188;-89
2023/06/12 08:09:26;;;;;;;11.90;11.10;;;25.40;40.40;;;;;;5018584;28;20209;-89
2023/06/12 08:11:54;;;;;;;12.15;11.45;;;25.40;40.80;;;;;;5034989;28;20205;-88
2023/06/12 08:14:21;;;;;;;12.73;11.93;;;25.50;41.00;;;;;;5034696;28;20185;-90
2023/06/12 08:16:46;;;;;;;13.73;12.57;;;25.50;40.50;;;;;;5036421;28;20208;-88
2023/06/12 08:19:12;;;;;;;13.23;12.32;;;25.70;39.80;;;;;;5035784;28;20580;-87
2023/06/12 08:21:39;;;;;;;13.95;13.00;;;25.80;39.10;;;;;;5036565;28;20212;-89
2023/06/12 08:24:07;;;;;;;13.43;12.52;;;25.80;38.60;;;;;;5036596;28;20580;-89
2023/06/12 08:26:33;;;;;;;14.52;13.52;;;26.00;39.00;;;;;;5038675;28;20193;-88
2023/06/12 08:29:00;;;;;;;14.20;13.13;;;26.10;37.70;;;;;;5038389;28;20250;-89
2023/06/12 08:31:26;;;;;;;14.93;13.95;;;26.10;38.40;;;;;;5039109;28;20260;-87
2023/06/12 08:33:52;;;;;;;14.80;13.90;;;26.50;38.20;;;;;;5037362;28;20207;-87
2023/06/12 08:36:18;;;;;;;16.02;15.23;;;26.50;37.70;;;;;;5038720;28;20197;-88
2023/06/12 08:38:43;;;;;;;15.27;14.38;;;26.60;37.40;;;;;;5036808;28;20842;-89
2023/06/12 08:41:09;;;;;;;13.98;13.25;;;26.50;37.00;;;;;;5035217;28;20248;-89
2023/06/12 08:43:36;;;;;;;15.60;14.80;;;26.60;37.70;;;;;;5036800;28;20204;-88
2023/06/12 08:46:04;;;;;;;16.20;15.23;;;26.90;37.10;;;;;;5036311;28;20173;-88
2023/06/12 08:48:30;;;;;;;17.83;16.83;;;27.10;36.00;;;;;;5037131;28;20209;-88
2023/06/12 08:50:56;;;;;;;17.40;16.60;;;27.20;35.00;;;;;;5035798;28;20261;-87
2023/06/12 08:53:22;;;;;;;18.50;17.60;;;27.40;34.70;;;;;;5033794;28;20174;-90
2023/06/12 08:55:50;;;;;;;18.80;17.92;;;27.70;34.20;;;;;;5034714;28;20674;-88
2023/06/12 08:58:16;;;;;;;19.75;18.67;;;27.80;32.80;;;;;;5035364;28;20216;-88
2023/06/12 09:00:41;;;;;;;20.02;19.02;;;27.70;31.10;;;;;;5036022;28;20215;-90
2023/06/12 09:03:07;;;;;;;19.08;18.17;;;27.80;32.00;;;;;;5035492;28;20181;-89
2023/06/12 09:05:37;;;;;;;19.55;18.65;;;27.70;32.50;;;;;;5035458;28;20181;-89
2023/06/12 09:08:04;;;;;;;18.55;17.60;;;27.80;32.80;;;;;;5029434;28;20197;-88
2023/06/12 09:10:31;;;;;;;19.00;17.85;;;27.80;33.20;;;;;;5035845;28;20175;-88
2023/06/12 09:12:58;;;;;;;19.00;17.90;;;27.80;33.30;;;;;;5034738;28;20220;-89
2023/06/12 09:15:24;;;;;;;20.48;19.48;;;27.90;32.80;;;;;;5035399;28;20204;-89
2023/06/12 09:17:54;;;;;;;21.42;20.33;;;28.10;32.40;;;;;;5035110;28;20199;-88
2023/06/12 09:20:26;;;;;;;19.88;18.98;;;28.50;31.80;;;;;;5034366;28;20173;-89
2023/06/12 09:22:52;;;;;;;20.10;19.10;;;28.50;31.10;;;;;;5034900;28;20197;-88
2023/06/12 09:25:19;;;;;;;18.73;17.83;;;28.60;30.80;;;;;;5038834;28;20177;-88
2023/06/12 09:27:47;;;;;;;20.63;19.63;;;28.60;30.00;;;;;;5036236;28;20669;-88
2023/06/12 09:30:13;;;;;;;85.03;74.03;;;28.80;30.60;;;;;;5037193;28;20308;-90
2023/06/12 09:32:44;;;;;;;20.30;19.30;;;28.50;30.30;;;;;;5036463;28;20208;-88
2023/06/12 09:35:11;;;;;;;19.92;18.83;;;28.60;29.90;;;;;;5035473;28;20192;-88
2023/06/12 09:37:39;;;;;;;19.30;18.40;;;28.80;29.80;;;;;;5035516;28;20197;-89
2023/06/12 09:40:13;;;;;;;20.20;18.98;;;28.90;29.80;;;;;;5036799;28;20736;-89
2023/06/12 09:42:40;;;;;;;18.98;18.02;;;29.10;30.00;;;;;;5036785;28;20215;-89
2023/06/12 09:45:16;;;;;;;19.33;18.40;;;29.40;29.20;;;;;;5038796;28;20214;-90
2023/06/12 09:47:52;;;;;;;19.10;17.85;;;29.70;27.70;;;;;;5038027;28;20227;-89
2023/06/12 09:50:25;;;;;;;20.60;19.50;;;29.60;28.70;;;;;;5034738;28;20604;-88
2023/06/12 09:52:54;;;;;;;20.05;19.05;;;29.20;27.00;;;;;;5034982;28;20193;-88
2023/06/12 09:55:20;;;;;;;18.13;17.05;;;28.70;27.70;;;;;;5035985;28;20177;-89
2023/06/12 09:57:51;;;;;;;19.67;18.60;;;28.60;28.30;;;;;;5035140;28;20173;-89
2023/06/12 10:00:19;;;;;;;18.67;17.88;;;29.10;29.40;;;;;;5033530;28;20237;-89
2023/06/12 10:03:00;;;;;;;18.88;18.02;;;29.60;28.90;;;;;;5032340;28;20197;-89
2023/06/12 10:05:38;;;;;;;20.60;19.65;;;29.80;27.60;;;;;;5031653;28;20200;-91
2023/06/12 10:08:05;;;;;;;20.90;19.90;;;29.90;27.50;;;;;;5032370;28;20181;-89
2023/06/12 10:10:33;;;;;;;20.15;19.17;;;30.10;28.20;;;;;;5034208;28;20181;-89
2023/06/12 10:13:01;;;;;;;21.50;20.30;;;30.10;28.00;;;;;;5033237;28;20204;-89
2023/06/12 10:15:28;;;;;;;21.15;19.95;;;30.10;27.60;;;;;;5033901;28;20177;-90
2023/06/12 10:17:54;;;;;;;20.40;19.35;;;30.40;28.00;;;;;;5032931;28;20241;-87
2023/06/12 10:20:21;;;;;;;20.80;19.75;;;30.30;28.20;;;;;;5035933;28;20183;-88
2023/06/12 10:22:48;;;;;;;19.90;19.00;;;30.50;28.40;;;;;;5035638;28;20189;-88
2023/06/12 10:25:15;;;;;;;19.75;18.80;;;30.60;28.50;;;;;;5035061;28;20218;-88
2023/06/12 10:27:41;;;;;;;19.77;18.88;;;30.70;28.70;;;;;;5033745;28;20181;-89
2023/06/12 10:30:11;;;;;;;20.83;19.63;;;30.50;28.60;;;;;;5035316;28;20209;-89
2023/06/12 10:32:38;;;;;;;21.77;20.88;;;30.70;29.00;;;;;;5035550;28;20193;-89
2023/06/12 10:35:04;;;;;;;21.33;20.23;;;30.80;27.70;;;;;;5036966;28;20193;-87
2023/06/12 10:37:39;;;;;;;21.02;20.02;;;30.80;28.10;;;;;;5036535;28;20212;-88
2023/06/12 10:40:16;;;;;;;21.55;20.55;;;30.90;28.20;;;;;;5037294;28;20200;-86
2023/06/12 10:42:54;;;;;;;21.75;20.65;;;31.10;28.20;;;;;;5035316;28;20206;-89
2023/06/12 10:45:27;;;;;;;21.40;20.38;;;31.20;27.80;;;;;;5035036;28;20238;-89
2023/06/12 10:48:03;;;;;;;21.15;19.92;;;31.20;28.20;;;;;;5032066;28;20262;-87
2023/06/12 10:50:30;;;;;;;21.52;20.52;;;31.40;27.50;;;;;;5033673;28;20181;-89
2023/06/12 10:52:59;;;;;;;21.38;20.42;;;31.40;27.90;;;;;;5032815;28;20192;-88
2023/06/12 10:55:28;;;;;;;21.80;20.60;;;31.70;28.20;;;;;;5014047;28;20193;-87
2023/06/12 10:58:05;;;;;;;21.98;20.77;;;31.40;28.70;;;;;;5032228;28;20191;-88
2023/06/12 11:00:36;;;;;;;21.85;20.55;;;31.20;29.00;;;;;;5033906;28;20181;-89
2023/06/12 11:03:10;;;;;;;20.27;19.27;;;31.10;29.50;;;;;;5033185;28;20776;-88
2023/06/12 11:05:37;;;;;;;21.20;20.00;;;31.10;29.40;;;;;;5032921;28;20181;-88
2023/06/12 11:08:05;;;;;;;20.75;19.55;;;30.60;29.00;;;;;;5025550;28;20169;-87
2023/06/12 11:10:32;;;;;;;19.90;19.00;;;30.30;29.40;;;;;;5016179;28;20177;-86
2023/06/12 11:12:59;;;;;;;20.25;19.35;;;30.70;28.40;;;;;;5021223;28;20236;-88
2023/06/12 11:15:25;;;;;;;20.70;19.70;;;30.60;28.20;;;;;;5025696;28;20188;-86
2023/06/12 11:17:51;;;;;;;21.20;20.17;;;31.00;27.50;;;;;;5034884;28;20232;-87
2023/06/12 11:20:19;;;;;;;22.52;21.38;;;31.20;27.40;;;;;;5035461;28;20180;-89
2023/06/12 11:22:48;;;;;;;22.40;21.20;;;31.20;27.30;;;;;;5035998;28;20735;-88
2023/06/12 11:25:17;;;;;;;21.52;20.52;;;31.20;27.30;;;;;;5037673;28;20309;-89
2023/06/12 11:27:43;;;;;;;22.42;21.42;;;31.30;27.10;;;;;;5035689;28;20268;-87
2023/06/12 11:30:15;;;;;;;22.08;21.08;;;31.70;26.10;;;;;;5036635;28;20772;-87
2023/06/12 11:32:42;;;;;;;21.85;20.75;;;31.70;26.40;;;;;;5035037;28;20212;-88
2023/06/12 11:35:11;;;;;;;24.52;23.15;;;31.80;26.40;;;;;;5036434;28;20181;-87
2023/06/12 11:37:38;;;;;;;25.27;23.92;;;32.00;26.20;;;;;;5034968;28;20176;-88
2023/06/12 11:40:11;;;;;;;25.65;24.35;;;32.40;25.90;;;;;;5035823;28;20224;-88
2023/06/12 11:42:42;;;;;;;27.42;26.23;;;32.50;25.20;;;;;;5035636;28;20228;-86
2023/06/12 11:45:14;;;;;;;28.23;26.92;;;32.40;25.60;;;;;;5014689;28;21708;-90
2023/06/12 11:47:44;;;;;;;27.13;25.92;;;32.40;25.50;;;;;;5012394;28;20180;-88
2023/06/12 11:50:11;;;;;;;28.90;27.70;;;32.50;25.30;;;;;;5029832;28;20216;-87
2023/06/12 11:52:40;;;;;;;28.63;27.30;;;32.90;24.50;;;;;;5017022;28;20214;-88
2023/06/12 11:55:10;;;;;;;27.27;26.17;;;33.00;25.20;;;;;;5007950;28;20184;-88
2023/06/12 11:57:37;;;;;;;30.13;28.73;;;32.80;25.00;;;;;;5009736;28;20220;-87
2023/06/12 12:00:13;;;;;;;29.13;27.92;;;33.00;25.70;;;;;;5016222;28;20267;-88
2023/06/12 12:02:43;;;;;;;27.75;26.63;;;32.50;26.30;;;;;;5015577;28;20219;-87
2023/06/12 12:05:16;;;;;;;27.42;26.27;;;32.80;25.20;;;;;;5019875;28;20185;-88
2023/06/12 12:07:45;;;;;;;29.35;28.15;;;32.70;25.10;;;;;;5016806;28;20223;-88
2023/06/12 12:10:14;;;;;;;32.30;30.73;;;33.10;24.70;;;;;;5022165;28;20205;-88
2023/06/12 12:12:51;;;;;;;32.58;31.27;;;33.60;23.90;;;;;;5012504;28;20244;-88
2023/06/12 12:15:20;;;;;;;34.13;32.50;;;33.50;24.40;;;;;;5012127;28;20185;-86
2023/06/12 12:17:46;;;;;;;34.83;33.33;;;33.80;24.00;;;;;;5013801;28;20303;-88
2023/06/12 12:20:17;;;;;;;36.03;34.60;;;33.90;23.80;;;;;;5012465;28;20212;-88
2023/06/12 12:22:46;;;;;;;35.95;34.55;;;34.20;24.20;;;;;;5014172;28;20219;-87
2023/06/12 12:25:24;;;;;;;34.42;33.03;;;34.50;24.00;;;;;;5012062;28;20223;-87
2023/06/12 12:27:51;;;;;;;34.00;32.38;;;34.60;23.20;;;;;;5013724;28;20270;-87
2023/06/12 12:30:18;;;;;;;30.92;29.55;;;34.90;22.50;;;;;;5018729;28;20297;-88
2023/06/12 12:32:46;;;;;;;30.98;29.48;;;34.90;21.70;;;;;;5017034;28;20216;-89
2023/06/12 12:35:14;;;;;;;30.70;29.30;;;34.90;22.00;;;;;;5016524;28;20945;-87
2023/06/12 12:37:41;;;;;;;29.23;28.10;;;34.90;22.90;;;;;;5018247;28;20294;-88
2023/06/12 12:40:11;;;;;;;32.70;31.23;;;34.00;23.70;;;;;;5018515;28;20205;-88